sensor_id;sensor_type;location;lat;lon;timestamp;P1;durP1;ratioP1;P2;durP2;ratioP2
77055;SDS011;67471;44.918;8.614;2023-06-04T00:02:10;16.70;;;11.30;;
77055;SDS011;67471;44.918;8.614;2023-06-04T00:05:14;17.65;;;11.48;;
77055;SDS011;67471;44.918;8.614;2023-06-04T00:08:18;18.45;;;12.15;;
77055;SDS011;67471;44.918;8.614;2023-06-04T00:11:21;15.88;;;11.90;;
77055;SDS011;67471;44.918;8.614;2023-06-04T00:14:26;16.48;;;12.23;;
77055;SDS011;67471;44.918;8.614;2023-06-04T00:17:30;15.77;;;11.63;;
77055;SDS011;67471;44.918;8.614;2023-06-04T00:20:34;17.27;;;12.88;;
77055;SDS011;67471;44.918;8.614;2023-06-04T00:23:37;16.77;;;11.45;;
77055;SDS011;67471;44.918;8.614;2023-06-04T00:26:41;16.98;;;11.10;;
77055;SDS011;67471;44.918;8.614;2023-06-04T00:29:45;16.17;;;11.10;;
77055;SDS011;67471;44.918;8.614;2023-06-04T00:32:49;16.02;;;11.52;;
77055;SDS011;67471;44.918;8.614;2023-06-04T00:35:52;18.02;;;11.65;;
77055;SDS011;67471;44.918;8.614;2023-06-04T00:38:56;16.85;;;12.57;;
77055;SDS011;67471;44.918;8.614;2023-06-04T00:42:00;21.65;;;12.73;;
77055;SDS011;67471;44.918;8.614;2023-06-04T00:45:04;16.70;;;12.00;;
77055;SDS011;67471;44.918;8.614;2023-06-04T00:48:11;18.48;;;12.63;;
77055;SDS011;67471;44.918;8.614;2023-06-04T00:51:15;23.13;;;12.93;;
77055;SDS011;67471;44.918;8.614;2023-06-04T00:54:19;20.30;;;12.63;;
77055;SDS011;67471;44.918;8.614;2023-06-04T00:57:23;16.40;;;12.05;;
77055;SDS011;67471;44.918;8.614;2023-06-04T01:00:27;14.85;;;12.48;;
77055;SDS011;67471;44.918;8.614;2023-06-04T01:03:31;14.80;;;11.85;;
77055;SDS011;67471;44.918;8.614;2023-06-04T01:06:39;19.52;;;13.00;;
77055;SDS011;67471;44.918;8.614;2023-06-04T01:09:45;16.55;;;12.40;;
77055;SDS011;67471;44.918;8.614;2023-06-04T01:12:49;19.35;;;12.63;;
77055;SDS011;67471;44.918;8.614;2023-06-04T01:15:53;17.48;;;11.35;;
77055;SDS011;67471;44.918;8.614;2023-06-04T01:18:58;15.93;;;10.43;;
77055;SDS011;67471;44.918;8.614;2023-06-04T01:22:04;12.77;;;10.20;;
77055;SDS011;67471;44.918;8.614;2023-06-04T01:28:32;17.02;;;11.93;;
77055;SDS011;67471;44.918;8.614;2023-06-04T01:31:37;13.73;;;10.27;;
77055;SDS011;67471;44.918;8.614;2023-06-04T01:34:45;21.20;;;11.27;;
77055;SDS011;67471;44.918;8.614;2023-06-04T01:37:51;14.88;;;12.15;;
77055;SDS011;67471;44.918;8.614;2023-06-04T01:40:55;18.52;;;12.05;;
77055;SDS011;67471;44.918;8.614;2023-06-04T01:44:00;16.10;;;12.32;;
77055;SDS011;67471;44.918;8.614;2023-06-04T01:47:04;20.92;;;13.00;;
77055;SDS011;67471;44.918;8.614;2023-06-04T01:50:08;14.95;;;11.57;;
77055;SDS011;67471;44.918;8.614;2023-06-04T01:53:16;16.38;;;11.70;;
77055;SDS011;67471;44.918;8.614;2023-06-04T01:56:20;17.50;;;11.63;;
77055;SDS011;67471;44.918;8.614;2023-06-04T01:59:24;16.00;;;12.00;;
77055;SDS011;67471;44.918;8.614;2023-06-04T02:02:28;13.07;;;10.43;;
77055;SDS011;67471;44.918;8.614;2023-06-04T02:05:32;16.73;;;11.95;;
77055;SDS011;67471;44.918;8.614;2023-06-04T02:08:36;17.33;;;12.50;;
77055;SDS011;67471;44.918;8.614;2023-06-04T02:11:40;19.00;;;12.80;;
77055;SDS011;67471;44.918;8.614;2023-06-04T02:14:44;19.30;;;13.38;;
77055;SDS011;67471;44.918;8.614;2023-06-04T02:17:50;21.23;;;14.65;;
77055;SDS011;67471;44.918;8.614;2023-06-04T02:20:58;17.50;;;13.45;;
77055;SDS011;67471;44.918;8.614;2023-06-04T02:24:02;18.00;;;13.50;;
77055;SDS011;67471;44.918;8.614;2023-06-04T02:27:06;17.17;;;12.07;;
77055;SDS011;67471;44.918;8.614;2023-06-04T02:30:09;21.42;;;13.70;;
77055;SDS011;67471;44.918;8.614;2023-06-04T02:33:13;17.75;;;13.00;;
77055;SDS011;67471;44.918;8.614;2023-06-04T02:36:17;21.17;;;12.95;;
77055;SDS011;67471;44.918;8.614;2023-06-04T02:39:21;19.98;;;14.05;;
77055;SDS011;67471;44.918;8.614;2023-06-04T02:42:25;18.02;;;13.70;;
77055;SDS011;67471;44.918;8.614;2023-06-04T02:45:29;22.20;;;14.60;;
77055;SDS011;67471;44.918;8.614;2023-06-04T02:48:33;24.10;;;15.00;;
77055;SDS011;67471;44.918;8.614;2023-06-04T02:51:36;20.42;;;14.70;;
77055;SDS011;67471;44.918;8.614;2023-06-04T02:54:40;21.33;;;14.38;;
77055;SDS011;67471;44.918;8.614;2023-06-04T02:57:44;24.13;;;15.07;;
77055;SDS011;67471;44.918;8.614;2023-06-04T03:00:48;18.75;;;12.73;;
77055;SDS011;67471;44.918;8.614;2023-06-04T03:03:52;19.70;;;12.38;;
77055;SDS011;67471;44.918;8.614;2023-06-04T03:06:56;16.75;;;12.02;;
77055;SDS011;67471;44.918;8.614;2023-06-04T03:10:01;15.98;;;11.73;;
77055;SDS011;67471;44.918;8.614;2023-06-04T03:13:04;13.85;;;10.75;;
77055;SDS011;67471;44.918;8.614;2023-06-04T03:16:08;17.48;;;12.13;;
77055;SDS011;67471;44.918;8.614;2023-06-04T03:19:15;13.63;;;10.68;;
77055;SDS011;67471;44.918;8.614;2023-06-04T03:22:20;14.02;;;10.30;;
77055;SDS011;67471;44.918;8.614;2023-06-04T03:25:23;13.85;;;9.65;;
77055;SDS011;67471;44.918;8.614;2023-06-04T03:28:28;11.18;;;8.18;;
77055;SDS011;67471;44.918;8.614;2023-06-04T03:31:33;10.07;;;7.07;;
77055;SDS011;67471;44.918;8.614;2023-06-04T03:34:37;10.68;;;7.18;;
77055;SDS011;67471;44.918;8.614;2023-06-04T03:37:40;11.02;;;7.65;;
77055;SDS011;67471;44.918;8.614;2023-06-04T03:40:45;8.45;;;6.68;;
77055;SDS011;67471;44.918;8.614;2023-06-04T03:43:49;9.20;;;6.85;;
77055;SDS011;67471;44.918;8.614;2023-06-04T03:46:53;9.50;;;6.93;;
77055;SDS011;67471;44.918;8.614;2023-06-04T03:49:57;10.60;;;7.25;;
77055;SDS011;67471;44.918;8.614;2023-06-04T03:53:02;11.30;;;7.03;;
77055;SDS011;67471;44.918;8.614;2023-06-04T03:56:08;10.50;;;7.70;;
77055;SDS011;67471;44.918;8.614;2023-06-04T03:59:12;11.73;;;7.65;;
77055;SDS011;67471;44.918;8.614;2023-06-04T04:02:16;10.68;;;6.80;;
77055;SDS011;67471;44.918;8.614;2023-06-04T04:05:23;9.52;;;7.05;;
77055;SDS011;67471;44.918;8.614;2023-06-04T04:08:28;8.57;;;7.53;;
77055;SDS011;67471;44.918;8.614;2023-06-04T04:11:35;13.10;;;7.80;;
77055;SDS011;67471;44.918;8.614;2023-06-04T04:14:40;12.60;;;8.77;;
77055;SDS011;67471;44.918;8.614;2023-06-04T04:17:43;14.25;;;9.02;;
77055;SDS011;67471;44.918;8.614;2023-06-04T04:20:48;13.00;;;9.38;;
77055;SDS011;67471;44.918;8.614;2023-06-04T04:23:51;11.13;;;7.57;;
77055;SDS011;67471;44.918;8.614;2023-06-04T04:26:56;12.23;;;8.30;;
77055;SDS011;67471;44.918;8.614;2023-06-04T04:30:03;10.82;;;7.90;;
77055;SDS011;67471;44.918;8.614;2023-06-04T04:33:08;9.95;;;7.25;;
77055;SDS011;67471;44.918;8.614;2023-06-04T04:36:18;11.40;;;7.35;;
77055;SDS011;67471;44.918;8.614;2023-06-04T04:39:25;12.57;;;7.90;;
77055;SDS011;67471;44.918;8.614;2023-06-04T04:42:31;10.45;;;7.55;;
77055;SDS011;67471;44.918;8.614;2023-06-04T04:45:35;11.15;;;8.65;;
77055;SDS011;67471;44.918;8.614;2023-06-04T04:48:40;12.20;;;8.63;;
77055;SDS011;67471;44.918;8.614;2023-06-04T04:51:46;11.93;;;9.03;;
77055;SDS011;67471;44.918;8.614;2023-06-04T04:54:52;13.27;;;9.43;;
77055;SDS011;67471;44.918;8.614;2023-06-04T04:58:00;14.82;;;8.90;;
77055;SDS011;67471;44.918;8.614;2023-06-04T05:01:04;13.40;;;9.48;;
77055;SDS011;67471;44.918;8.614;2023-06-04T05:04:08;14.55;;;8.57;;
77055;SDS011;67471;44.918;8.614;2023-06-04T05:07:12;13.50;;;8.13;;
77055;SDS011;67471;44.918;8.614;2023-06-04T05:10:17;16.30;;;9.05;;
77055;SDS011;67471;44.918;8.614;2023-06-04T05:13:21;13.75;;;9.32;;
77055;SDS011;67471;44.918;8.614;2023-06-04T05:16:33;16.60;;;9.75;;
77055;SDS011;67471;44.918;8.614;2023-06-04T05:19:41;12.27;;;8.80;;
77055;SDS011;67471;44.918;8.614;2023-06-04T05:22:46;13.82;;;9.40;;
77055;SDS011;67471;44.918;8.614;2023-06-04T05:25:51;13.43;;;8.98;;
77055;SDS011;67471;44.918;8.614;2023-06-04T05:28:56;14.88;;;8.70;;
77055;SDS011;67471;44.918;8.614;2023-06-04T05:32:00;14.65;;;9.27;;
77055;SDS011;67471;44.918;8.614;2023-06-04T05:35:04;11.77;;;8.95;;
77055;SDS011;67471;44.918;8.614;2023-06-04T05:38:10;12.35;;;9.35;;
77055;SDS011;67471;44.918;8.614;2023-06-04T05:41:18;10.35;;;9.02;;
77055;SDS011;67471;44.918;8.614;2023-06-04T05:44:27;11.85;;;8.77;;
77055;SDS011;67471;44.918;8.614;2023-06-04T05:47:30;10.85;;;9.05;;
77055;SDS011;67471;44.918;8.614;2023-06-04T05:50:35;17.17;;;9.57;;
77055;SDS011;67471;44.918;8.614;2023-06-04T05:53:39;15.00;;;9.38;;
77055;SDS011;67471;44.918;8.614;2023-06-04T05:56:43;11.65;;;8.75;;
77055;SDS011;67471;44.918;8.614;2023-06-04T05:59:46;15.70;;;9.80;;
77055;SDS011;67471;44.918;8.614;2023-06-04T06:02:53;13.02;;;9.80;;
77055;SDS011;67471;44.918;8.614;2023-06-04T06:06:11;13.88;;;9.57;;
77055;SDS011;67471;44.918;8.614;2023-06-04T06:09:15;14.95;;;10.88;;
77055;SDS011;67471;44.918;8.614;2023-06-04T06:12:20;13.85;;;10.35;;
77055;SDS011;67471;44.918;8.614;2023-06-04T06:15:24;14.48;;;10.27;;
77055;SDS011;67471;44.918;8.614;2023-06-04T06:18:29;14.10;;;11.18;;
77055;SDS011;67471;44.918;8.614;2023-06-04T06:21:32;15.85;;;12.18;;
77055;SDS011;67471;44.918;8.614;2023-06-04T06:24:37;21.98;;;12.82;;
77055;SDS011;67471;44.918;8.614;2023-06-04T06:27:43;20.45;;;13.38;;
77055;SDS011;67471;44.918;8.614;2023-06-04T06:30:48;18.50;;;14.15;;
77055;SDS011;67471;44.918;8.614;2023-06-04T06:33:52;17.67;;;12.70;;
77055;SDS011;67471;44.918;8.614;2023-06-04T06:36:56;17.17;;;13.50;;
77055;SDS011;67471;44.918;8.614;2023-06-04T06:40:00;18.55;;;12.38;;
77055;SDS011;67471;44.918;8.614;2023-06-04T06:43:04;20.45;;;16.45;;
77055;SDS011;67471;44.918;8.614;2023-06-04T06:46:08;14.52;;;11.77;;
77055;SDS011;67471;44.918;8.614;2023-06-04T06:49:12;15.60;;;11.93;;
77055;SDS011;67471;44.918;8.614;2023-06-04T06:52:16;16.98;;;12.13;;
77055;SDS011;67471;44.918;8.614;2023-06-04T06:55:22;16.42;;;11.27;;
77055;SDS011;67471;44.918;8.614;2023-06-04T06:58:26;16.02;;;12.82;;
77055;SDS011;67471;44.918;8.614;2023-06-04T07:01:30;16.00;;;12.80;;
77055;SDS011;67471;44.918;8.614;2023-06-04T07:04:35;16.38;;;12.32;;
77055;SDS011;67471;44.918;8.614;2023-06-04T07:07:39;17.23;;;11.75;;
77055;SDS011;67471;44.918;8.614;2023-06-04T07:10:43;16.20;;;12.70;;
77055;SDS011;67471;44.918;8.614;2023-06-04T07:13:47;15.35;;;11.25;;
77055;SDS011;67471;44.918;8.614;2023-06-04T07:16:50;14.85;;;11.40;;
77055;SDS011;67471;44.918;8.614;2023-06-04T07:19:54;15.35;;;12.48;;
77055;SDS011;67471;44.918;8.614;2023-06-04T07:22:58;12.77;;;10.52;;
77055;SDS011;67471;44.918;8.614;2023-06-04T07:26:02;13.65;;;10.57;;
77055;SDS011;67471;44.918;8.614;2023-06-04T07:29:06;15.38;;;11.38;;
77055;SDS011;67471;44.918;8.614;2023-06-04T07:32:10;13.45;;;10.43;;
77055;SDS011;67471;44.918;8.614;2023-06-04T07:35:13;21.05;;;12.60;;
77055;SDS011;67471;44.918;8.614;2023-06-04T07:38:18;15.98;;;12.30;;
77055;SDS011;67471;44.918;8.614;2023-06-04T07:41:21;16.33;;;12.10;;
77055;SDS011;67471;44.918;8.614;2023-06-04T07:44:25;14.82;;;11.40;;
77055;SDS011;67471;44.918;8.614;2023-06-04T07:47:29;22.10;;;13.90;;
77055;SDS011;67471;44.918;8.614;2023-06-04T07:50:33;13.18;;;10.70;;
77055;SDS011;67471;44.918;8.614;2023-06-04T07:53:37;12.55;;;10.80;;
77055;SDS011;67471;44.918;8.614;2023-06-04T07:56:41;25.33;;;15.13;;
77055;SDS011;67471;44.918;8.614;2023-06-04T07:59:44;14.13;;;11.00;;
77055;SDS011;67471;44.918;8.614;2023-06-04T08:02:48;15.70;;;12.13;;
77055;SDS011;67471;44.918;8.614;2023-06-04T08:05:53;16.17;;;12.70;;
77055;SDS011;67471;44.918;8.614;2023-06-04T08:08:57;16.45;;;12.98;;
77055;SDS011;67471;44.918;8.614;2023-06-04T08:12:00;14.43;;;12.73;;
77055;SDS011;67471;44.918;8.614;2023-06-04T08:15:04;15.55;;;12.60;;
77055;SDS011;67471;44.918;8.614;2023-06-04T08:18:23;16.73;;;12.20;;
77055;SDS011;67471;44.918;8.614;2023-06-04T08:21:45;18.92;;;14.25;;
77055;SDS011;67471;44.918;8.614;2023-06-04T08:25:06;21.27;;;14.18;;
77055;SDS011;67471;44.918;8.614;2023-06-04T08:28:31;15.75;;;13.07;;
77055;SDS011;67471;44.918;8.614;2023-06-04T08:31:43;15.98;;;13.30;;
77055;SDS011;67471;44.918;8.614;2023-06-04T08:34:57;15.38;;;13.30;;
77055;SDS011;67471;44.918;8.614;2023-06-04T08:38:01;16.52;;;12.80;;
77055;SDS011;67471;44.918;8.614;2023-06-04T08:41:10;16.80;;;13.55;;
77055;SDS011;67471;44.918;8.614;2023-06-04T08:44:18;18.13;;;14.27;;
77055;SDS011;67471;44.918;8.614;2023-06-04T08:47:22;20.75;;;14.88;;
77055;SDS011;67471;44.918;8.614;2023-06-04T08:50:28;14.15;;;12.10;;
77055;SDS011;67471;44.918;8.614;2023-06-04T08:53:32;16.88;;;13.18;;
77055;SDS011;67471;44.918;8.614;2023-06-04T08:56:36;18.55;;;14.50;;
77055;SDS011;67471;44.918;8.614;2023-06-04T08:59:40;17.90;;;14.23;;
77055;SDS011;67471;44.918;8.614;2023-06-04T09:02:44;14.57;;;13.07;;
77055;SDS011;67471;44.918;8.614;2023-06-04T09:05:50;17.08;;;13.40;;
77055;SDS011;67471;44.918;8.614;2023-06-04T09:08:58;16.90;;;12.38;;
77055;SDS011;67471;44.918;8.614;2023-06-04T09:12:02;17.27;;;13.65;;
77055;SDS011;67471;44.918;8.614;2023-06-04T09:15:08;15.55;;;13.13;;
77055;SDS011;67471;44.918;8.614;2023-06-04T09:18:12;16.73;;;13.32;;
77055;SDS011;67471;44.918;8.614;2023-06-04T09:21:15;17.80;;;13.27;;
77055;SDS011;67471;44.918;8.614;2023-06-04T09:24:20;16.70;;;13.13;;
77055;SDS011;67471;44.918;8.614;2023-06-04T09:27:24;15.85;;;13.15;;
77055;SDS011;67471;44.918;8.614;2023-06-04T09:30:31;15.25;;;13.43;;
77055;SDS011;67471;44.918;8.614;2023-06-04T09:33:44;14.98;;;12.73;;
77055;SDS011;67471;44.918;8.614;2023-06-04T09:36:49;22.58;;;16.25;;
77055;SDS011;67471;44.918;8.614;2023-06-04T09:39:54;22.20;;;18.65;;
77055;SDS011;67471;44.918;8.614;2023-06-04T09:43:00;22.92;;;18.13;;
77055;SDS011;67471;44.918;8.614;2023-06-04T09:46:11;25.02;;;19.08;;
77055;SDS011;67471;44.918;8.614;2023-06-04T09:49:18;26.52;;;20.90;;
77055;SDS011;67471;44.918;8.614;2023-06-04T09:52:31;30.15;;;23.25;;
77055;SDS011;67471;44.918;8.614;2023-06-04T09:55:36;25.88;;;20.95;;
77055;SDS011;67471;44.918;8.614;2023-06-04T09:58:40;25.45;;;21.30;;
77055;SDS011;67471;44.918;8.614;2023-06-04T10:01:44;26.48;;;20.73;;
77055;SDS011;67471;44.918;8.614;2023-06-04T10:04:55;25.15;;;20.83;;
77055;SDS011;67471;44.918;8.614;2023-06-04T10:08:02;28.52;;;22.13;;
77055;SDS011;67471;44.918;8.614;2023-06-04T10:11:11;24.60;;;21.13;;
77055;SDS011;67471;44.918;8.614;2023-06-04T10:14:20;30.90;;;24.77;;
77055;SDS011;67471;44.918;8.614;2023-06-04T10:17:29;32.88;;;25.83;;
77055;SDS011;67471;44.918;8.614;2023-06-04T10:20:33;31.13;;;23.80;;
77055;SDS011;67471;44.918;8.614;2023-06-04T10:23:37;25.85;;;19.88;;
77055;SDS011;67471;44.918;8.614;2023-06-04T10:26:41;28.30;;;22.92;;
77055;SDS011;67471;44.918;8.614;2023-06-04T10:29:46;30.38;;;24.42;;
77055;SDS011;67471;44.918;8.614;2023-06-04T10:32:50;30.80;;;23.10;;
77055;SDS011;67471;44.918;8.614;2023-06-04T10:35:54;31.00;;;24.40;;
77055;SDS011;67471;44.918;8.614;2023-06-04T10:38:59;28.73;;;23.92;;
77055;SDS011;67471;44.918;8.614;2023-06-04T10:42:04;30.95;;;24.95;;
77055;SDS011;67471;44.918;8.614;2023-06-04T10:45:08;30.80;;;25.23;;
77055;SDS011;67471;44.918;8.614;2023-06-04T10:48:13;28.25;;;24.45;;
77055;SDS011;67471;44.918;8.614;2023-06-04T10:51:33;27.85;;;24.80;;
77055;SDS011;67471;44.918;8.614;2023-06-04T10:54:37;27.52;;;23.73;;
77055;SDS011;67471;44.918;8.614;2023-06-04T10:57:50;22.77;;;19.95;;
77055;SDS011;67471;44.918;8.614;2023-06-04T11:01:01;23.75;;;19.25;;
77055;SDS011;67471;44.918;8.614;2023-06-04T11:04:05;19.85;;;17.15;;
77055;SDS011;67471;44.918;8.614;2023-06-04T11:07:09;16.58;;;14.45;;
77055;SDS011;67471;44.918;8.614;2023-06-04T11:10:13;19.33;;;15.32;;
77055;SDS011;67471;44.918;8.614;2023-06-04T11:13:22;16.38;;;13.43;;
77055;SDS011;67471;44.918;8.614;2023-06-04T11:16:27;17.38;;;14.80;;
77055;SDS011;67471;44.918;8.614;2023-06-04T11:19:36;18.23;;;12.88;;
77055;SDS011;67471;44.918;8.614;2023-06-04T11:22:40;17.02;;;12.70;;
77055;SDS011;67471;44.918;8.614;2023-06-04T11:25:44;14.85;;;12.80;;
77055;SDS011;67471;44.918;8.614;2023-06-04T11:28:49;14.43;;;12.93;;
77055;SDS011;67471;44.918;8.614;2023-06-04T11:31:52;13.75;;;10.98;;
77055;SDS011;67471;44.918;8.614;2023-06-04T11:35:03;14.65;;;11.77;;
77055;SDS011;67471;44.918;8.614;2023-06-04T11:38:10;14.55;;;13.00;;
77055;SDS011;67471;44.918;8.614;2023-06-04T11:41:14;15.35;;;13.68;;
77055;SDS011;67471;44.918;8.614;2023-06-04T11:44:18;13.70;;;12.30;;
77055;SDS011;67471;44.918;8.614;2023-06-04T11:47:23;13.55;;;11.50;;
77055;SDS011;67471;44.918;8.614;2023-06-04T11:50:27;13.73;;;12.23;;
77055;SDS011;67471;44.918;8.614;2023-06-04T11:53:33;16.17;;;11.88;;
77055;SDS011;67471;44.918;8.614;2023-06-04T11:56:37;18.70;;;13.18;;
77055;SDS011;67471;44.918;8.614;2023-06-04T11:59:41;14.80;;;12.27;;
77055;SDS011;67471;44.918;8.614;2023-06-04T12:03:03;17.40;;;13.52;;
77055;SDS011;67471;44.918;8.614;2023-06-04T12:06:18;18.48;;;14.32;;
77055;SDS011;67471;44.918;8.614;2023-06-04T12:09:24;15.32;;;12.95;;
77055;SDS011;67471;44.918;8.614;2023-06-04T12:12:30;18.27;;;13.70;;
77055;SDS011;67471;44.918;8.614;2023-06-04T12:15:34;15.27;;;12.77;;
77055;SDS011;67471;44.918;8.614;2023-06-04T12:18:38;19.15;;;13.50;;
77055;SDS011;67471;44.918;8.614;2023-06-04T12:21:42;14.48;;;12.70;;
77055;SDS011;67471;44.918;8.614;2023-06-04T12:24:47;16.40;;;12.60;;
77055;SDS011;67471;44.918;8.614;2023-06-04T12:27:51;14.82;;;13.00;;
77055;SDS011;67471;44.918;8.614;2023-06-04T12:30:54;15.00;;;11.65;;
77055;SDS011;67471;44.918;8.614;2023-06-04T12:33:59;15.55;;;12.75;;
77055;SDS011;67471;44.918;8.614;2023-06-04T12:37:04;15.05;;;12.90;;
77055;SDS011;67471;44.918;8.614;2023-06-04T12:40:09;14.35;;;11.65;;
77055;SDS011;67471;44.918;8.614;2023-06-04T12:43:13;14.35;;;12.85;;
77055;SDS011;67471;44.918;8.614;2023-06-04T12:46:16;13.25;;;10.32;;
77055;SDS011;67471;44.918;8.614;2023-06-04T12:49:20;11.23;;;9.55;;
77055;SDS011;67471;44.918;8.614;2023-06-04T12:52:24;12.02;;;10.10;;
77055;SDS011;67471;44.918;8.614;2023-06-04T12:55:28;12.50;;;9.95;;
77055;SDS011;67471;44.918;8.614;2023-06-04T12:58:37;12.55;;;10.90;;
77055;SDS011;67471;44.918;8.614;2023-06-04T13:01:41;12.20;;;10.85;;
77055;SDS011;67471;44.918;8.614;2023-06-04T13:04:45;12.23;;;10.43;;
77055;SDS011;67471;44.918;8.614;2023-06-04T13:07:49;11.60;;;9.98;;
77055;SDS011;67471;44.918;8.614;2023-06-04T13:10:53;12.45;;;9.82;;
77055;SDS011;67471;44.918;8.614;2023-06-04T13:13:56;13.23;;;10.52;;
77055;SDS011;67471;44.918;8.614;2023-06-04T13:17:00;11.77;;;10.57;;
77055;SDS011;67471;44.918;8.614;2023-06-04T13:20:04;11.73;;;9.55;;
77055;SDS011;67471;44.918;8.614;2023-06-04T13:23:09;14.02;;;11.35;;
77055;SDS011;67471;44.918;8.614;2023-06-04T13:26:12;12.68;;;10.43;;
77055;SDS011;67471;44.918;8.614;2023-06-04T13:29:16;14.05;;;11.20;;
77055;SDS011;67471;44.918;8.614;2023-06-04T13:32:25;11.98;;;10.07;;
77055;SDS011;67471;44.918;8.614;2023-06-04T13:35:28;13.57;;;9.93;;
77055;SDS011;67471;44.918;8.614;2023-06-04T13:38:32;11.48;;;9.32;;
77055;SDS011;67471;44.918;8.614;2023-06-04T13:41:36;11.13;;;8.48;;
77055;SDS011;67471;44.918;8.614;2023-06-04T13:44:40;9.40;;;8.40;;
77055;SDS011;67471;44.918;8.614;2023-06-04T13:47:43;12.00;;;10.30;;
77055;SDS011;67471;44.918;8.614;2023-06-04T13:50:47;12.90;;;9.60;;
77055;SDS011;67471;44.918;8.614;2023-06-04T13:53:51;12.30;;;9.18;;
77055;SDS011;67471;44.918;8.614;2023-06-04T13:56:56;10.55;;;7.95;;
77055;SDS011;67471;44.918;8.614;2023-06-04T14:00:00;10.90;;;7.43;;
77055;SDS011;67471;44.918;8.614;2023-06-04T14:03:03;12.52;;;7.13;;
77055;SDS011;67471;44.918;8.614;2023-06-04T14:06:07;11.85;;;8.68;;
77055;SDS011;67471;44.918;8.614;2023-06-04T14:09:11;12.35;;;5.65;;
77055;SDS011;67471;44.918;8.614;2023-06-04T14:12:15;7.10;;;4.13;;
77055;SDS011;67471;44.918;8.614;2023-06-04T14:15:21;7.28;;;4.07;;
77055;SDS011;67471;44.918;8.614;2023-06-04T14:18:25;6.80;;;3.22;;
77055;SDS011;67471;44.918;8.614;2023-06-04T14:21:29;7.55;;;3.40;;
77055;SDS011;67471;44.918;8.614;2023-06-04T14:24:33;4.93;;;3.30;;
77055;SDS011;67471;44.918;8.614;2023-06-04T14:27:36;4.75;;;2.78;;
77055;SDS011;67471;44.918;8.614;2023-06-04T14:30:40;6.47;;;3.58;;
77055;SDS011;67471;44.918;8.614;2023-06-04T14:33:44;7.13;;;3.65;;
77055;SDS011;67471;44.918;8.614;2023-06-04T14:36:48;9.02;;;5.50;;
77055;SDS011;67471;44.918;8.614;2023-06-04T14:39:51;11.23;;;6.70;;
77055;SDS011;67471;44.918;8.614;2023-06-04T14:42:55;14.93;;;8.65;;
77055;SDS011;67471;44.918;8.614;2023-06-04T14:46:00;21.15;;;8.30;;
77055;SDS011;67471;44.918;8.614;2023-06-04T14:49:04;14.93;;;6.97;;
77055;SDS011;67471;44.918;8.614;2023-06-04T14:52:08;11.65;;;7.20;;
77055;SDS011;67471;44.918;8.614;2023-06-04T14:55:12;13.90;;;7.15;;
77055;SDS011;67471;44.918;8.614;2023-06-04T14:58:16;15.95;;;6.78;;
77055;SDS011;67471;44.918;8.614;2023-06-04T15:01:20;13.23;;;7.57;;
77055;SDS011;67471;44.918;8.614;2023-06-04T15:04:26;11.50;;;7.70;;
77055;SDS011;67471;44.918;8.614;2023-06-04T15:07:30;11.77;;;6.38;;
77055;SDS011;67471;44.918;8.614;2023-06-04T15:10:34;9.52;;;6.20;;
77055;SDS011;67471;44.918;8.614;2023-06-04T15:13:38;21.45;;;9.75;;
77055;SDS011;67471;44.918;8.614;2023-06-04T15:16:42;13.38;;;8.18;;
77055;SDS011;67471;44.918;8.614;2023-06-04T15:19:46;11.60;;;7.53;;
77055;SDS011;67471;44.918;8.614;2023-06-04T15:22:50;12.60;;;6.10;;
77055;SDS011;67471;44.918;8.614;2023-06-04T15:25:54;9.70;;;6.63;;
77055;SDS011;67471;44.918;8.614;2023-06-04T15:28:57;9.30;;;5.90;;
77055;SDS011;67471;44.918;8.614;2023-06-04T15:32:01;7.78;;;5.07;;
77055;SDS011;67471;44.918;8.614;2023-06-04T15:35:05;8.57;;;4.45;;
77055;SDS011;67471;44.918;8.614;2023-06-04T15:38:09;8.45;;;4.22;;
77055;SDS011;67471;44.918;8.614;2023-06-04T15:41:13;6.13;;;4.47;;
77055;SDS011;67471;44.918;8.614;2023-06-04T15:44:16;7.30;;;4.00;;
77055;SDS011;67471;44.918;8.614;2023-06-04T15:47:20;5.53;;;3.88;;
77055;SDS011;67471;44.918;8.614;2023-06-04T15:50:24;7.53;;;4.63;;
77055;SDS011;67471;44.918;8.614;2023-06-04T15:53:28;9.98;;;5.63;;
77055;SDS011;67471;44.918;8.614;2023-06-04T15:56:32;9.70;;;6.10;;
77055;SDS011;67471;44.918;8.614;2023-06-04T15:59:36;15.18;;;7.57;;
77055;SDS011;67471;44.918;8.614;2023-06-04T16:02:40;15.93;;;9.85;;
77055;SDS011;67471;44.918;8.614;2023-06-04T16:05:44;23.70;;;12.18;;
77055;SDS011;67471;44.918;8.614;2023-06-04T16:08:48;23.77;;;11.52;;
77055;SDS011;67471;44.918;8.614;2023-06-04T16:11:52;41.90;;;13.90;;
77055;SDS011;67471;44.918;8.614;2023-06-04T16:14:56;48.65;;;16.45;;
77055;SDS011;67471;44.918;8.614;2023-06-04T16:17:59;59.70;;;20.77;;
77055;SDS011;67471;44.918;8.614;2023-06-04T16:21:03;69.68;;;32.50;;
77055;SDS011;67471;44.918;8.614;2023-06-04T16:24:07;35.20;;;22.35;;
77055;SDS011;67471;44.918;8.614;2023-06-04T16:27:11;16.25;;;13.02;;
77055;SDS011;67471;44.918;8.614;2023-06-04T16:30:15;14.82;;;8.73;;
77055;SDS011;67471;44.918;8.614;2023-06-04T16:33:19;14.05;;;9.93;;
77055;SDS011;67471;44.918;8.614;2023-06-04T16:36:23;11.40;;;7.63;;
77055;SDS011;67471;44.918;8.614;2023-06-04T16:39:27;9.70;;;5.57;;
77055;SDS011;67471;44.918;8.614;2023-06-04T16:42:31;12.27;;;6.43;;
77055;SDS011;67471;44.918;8.614;2023-06-04T16:45:35;8.30;;;5.53;;
77055;SDS011;67471;44.918;8.614;2023-06-04T16:48:39;10.77;;;6.00;;
77055;SDS011;67471;44.918;8.614;2023-06-04T16:51:42;8.73;;;5.28;;
77055;SDS011;67471;44.918;8.614;2023-06-04T16:54:46;11.80;;;5.85;;
77055;SDS011;67471;44.918;8.614;2023-06-04T16:57:50;9.35;;;6.75;;
77055;SDS011;67471;44.918;8.614;2023-06-04T17:00:53;7.70;;;5.20;;
77055;SDS011;67471;44.918;8.614;2023-06-04T17:03:58;11.88;;;6.13;;
77055;SDS011;67471;44.918;8.614;2023-06-04T17:07:01;11.00;;;5.97;;
77055;SDS011;67471;44.918;8.614;2023-06-04T17:10:05;11.98;;;8.20;;
77055;SDS011;67471;44.918;8.614;2023-06-04T17:13:09;9.40;;;5.35;;
77055;SDS011;67471;44.918;8.614;2023-06-04T17:16:13;9.07;;;6.10;;
77055;SDS011;67471;44.918;8.614;2023-06-04T17:19:17;9.02;;;5.90;;
77055;SDS011;67471;44.918;8.614;2023-06-04T17:22:21;8.73;;;5.10;;
77055;SDS011;67471;44.918;8.614;2023-06-04T17:25:25;8.13;;;4.65;;
77055;SDS011;67471;44.918;8.614;2023-06-04T17:28:29;9.80;;;4.43;;
77055;SDS011;67471;44.918;8.614;2023-06-04T17:31:34;6.05;;;4.38;;
77055;SDS011;67471;44.918;8.614;2023-06-04T17:34:37;7.15;;;4.15;;
77055;SDS011;67471;44.918;8.614;2023-06-04T17:37:41;7.22;;;4.75;;
77055;SDS011;67471;44.918;8.614;2023-06-04T17:40:45;5.90;;;4.15;;
77055;SDS011;67471;44.918;8.614;2023-06-04T17:43:48;7.88;;;4.80;;
77055;SDS011;67471;44.918;8.614;2023-06-04T17:46:52;7.50;;;4.70;;
77055;SDS011;67471;44.918;8.614;2023-06-04T17:49:56;6.80;;;4.90;;
77055;SDS011;67471;44.918;8.614;2023-06-04T17:53:00;6.72;;;4.70;;
77055;SDS011;67471;44.918;8.614;2023-06-04T17:56:03;7.47;;;4.63;;
77055;SDS011;67471;44.918;8.614;2023-06-04T17:59:07;8.88;;;4.65;;
77055;SDS011;67471;44.918;8.614;2023-06-04T18:02:11;8.95;;;4.97;;
77055;SDS011;67471;44.918;8.614;2023-06-04T18:05:15;6.68;;;4.95;;
77055;SDS011;67471;44.918;8.614;2023-06-04T18:08:19;9.23;;;5.47;;
77055;SDS011;67471;44.918;8.614;2023-06-04T18:11:24;7.55;;;4.63;;
77055;SDS011;67471;44.918;8.614;2023-06-04T18:14:28;7.38;;;4.68;;